sensor_id;sensor_type;location;lat;lon;timestamp;temperature;humidity
20598;DHT22;10457;48.770;11.446;2023-03-07T00:00:48;2.80;69.70
20598;DHT22;10457;48.770;11.446;2023-03-07T00:06:10;2.80;70.20
20598;DHT22;10457;48.770;11.446;2023-03-07T00:11:33;2.80;70.00
20598;DHT22;10457;48.770;11.446;2023-03-07T00:16:55;2.80;70.90
20598;DHT22;10457;48.770;11.446;2023-03-07T00:22:16;2.90;69.20
20598;DHT22;10457;48.770;11.446;2023-03-07T00:27:39;2.80;69.60
20598;DHT22;10457;48.770;11.446;2023-03-07T00:33:01;2.80;69.80
20598;DHT22;10457;48.770;11.446;2023-03-07T00:38:22;2.90;69.60
20598;DHT22;10457;48.770;11.446;2023-03-07T00:43:45;2.90;69.60
20598;DHT22;10457;48.770;11.446;2023-03-07T00:49:07;2.80;69.90
20598;DHT22;10457;48.770;11.446;2023-03-07T00:54:29;2.80;70.00
20598;DHT22;10457;48.770;11.446;2023-03-07T00:59:54;2.80;70.10
20598;DHT22;10457;48.770;11.446;2023-03-07T01:05:15;2.70;70.50
20598;DHT22;10457;48.770;11.446;2023-03-07T01:10:37;2.80;70.50
20598;DHT22;10457;48.770;11.446;2023-03-07T01:16:07;2.80;70.40
20598;DHT22;10457;48.770;11.446;2023-03-07T01:21:31;2.70;70.50
20598;DHT22;10457;48.770;11.446;2023-03-07T01:26:56;2.60;70.80
20598;DHT22;10457;48.770;11.446;2023-03-07T01:32:19;2.80;70.50
20598;DHT22;10457;48.770;11.446;2023-03-07T01:37:40;2.70;70.50
20598;DHT22;10457;48.770;11.446;2023-03-07T01:43:22;2.60;70.50
20598;DHT22;10457;48.770;11.446;2023-03-07T01:48:53;2.80;69.70
20598;DHT22;10457;48.770;11.446;2023-03-07T01:54:17;2.80;69.70
20598;DHT22;10457;48.770;11.446;2023-03-07T01:59:42;2.70;68.80
20598;DHT22;10457;48.770;11.446;2023-03-07T02:05:10;2.80;67.60
20598;DHT22;10457;48.770;11.446;2023-03-07T02:10:35;2.90;67.70
20598;DHT22;10457;48.770;11.446;2023-03-07T02:15:59;2.90;67.20
20598;DHT22;10457;48.770;11.446;2023-03-07T02:21:31;3.00;66.80
20598;DHT22;10457;48.770;11.446;2023-03-07T02:27:00;3.00;66.70
20598;DHT22;10457;48.770;11.446;2023-03-07T02:32:22;3.00;66.50
20598;DHT22;10457;48.770;11.446;2023-03-07T02:37:45;3.00;67.00
20598;DHT22;10457;48.770;11.446;2023-03-07T02:43:11;2.80;67.80
20598;DHT22;10457;48.770;11.446;2023-03-07T02:48:33;2.80;68.20
20598;DHT22;10457;48.770;11.446;2023-03-07T02:53:55;2.70;68.60
20598;DHT22;10457;48.770;11.446;2023-03-07T02:59:18;2.60;69.40
20598;DHT22;10457;48.770;11.446;2023-03-07T03:04:40;2.70;69.50
20598;DHT22;10457;48.770;11.446;2023-03-07T03:10:02;2.50;70.10
20598;DHT22;10457;48.770;11.446;2023-03-07T03:15:27;2.60;69.70
20598;DHT22;10457;48.770;11.446;2023-03-07T03:20:48;2.60;69.70
20598;DHT22;10457;48.770;11.446;2023-03-07T03:26:10;2.40;69.90
20598;DHT22;10457;48.770;11.446;2023-03-07T03:31:33;2.40;69.50
20598;DHT22;10457;48.770;11.446;2023-03-07T03:36:56;2.40;69.60
20598;DHT22;10457;48.770;11.446;2023-03-07T03:42:17;2.30;70.00
20598;DHT22;10457;48.770;11.446;2023-03-07T03:47:41;2.30;70.10
20598;DHT22;10457;48.770;11.446;2023-03-07T03:53:03;2.40;70.20
20598;DHT22;10457;48.770;11.446;2023-03-07T03:58:24;2.40;70.20
20598;DHT22;10457;48.770;11.446;2023-03-07T04:03:49;2.20;70.70
20598;DHT22;10457;48.770;11.446;2023-03-07T04:09:11;2.30;70.70
20598;DHT22;10457;48.770;11.446;2023-03-07T04:14:35;2.20;70.50
20598;DHT22;10457;48.770;11.446;2023-03-07T04:19:58;2.20;70.60
20598;DHT22;10457;48.770;11.446;2023-03-07T04:25:20;2.10;71.70
20598;DHT22;10457;48.770;11.446;2023-03-07T04:30:42;2.10;71.40
20598;DHT22;10457;48.770;11.446;2023-03-07T04:36:06;2.20;71.00
20598;DHT22;10457;48.770;11.446;2023-03-07T04:41:27;2.10;71.30
20598;DHT22;10457;48.770;11.446;2023-03-07T04:46:54;2.20;70.60
20598;DHT22;10457;48.770;11.446;2023-03-07T04:52:17;2.20;70.60
20598;DHT22;10457;48.770;11.446;2023-03-07T04:57:38;2.30;70.40
20598;DHT22;10457;48.770;11.446;2023-03-07T05:03:00;2.30;70.60
20598;DHT22;10457;48.770;11.446;2023-03-07T05:08:25;2.20;70.30
20598;DHT22;10457;48.770;11.446;2023-03-07T05:13:47;2.30;70.10
20598;DHT22;10457;48.770;11.446;2023-03-07T05:19:12;2.20;70.10
20598;DHT22;10457;48.770;11.446;2023-03-07T05:24:35;2.30;69.90
20598;DHT22;10457;48.770;11.446;2023-03-07T05:29:57;2.20;70.00
20598;DHT22;10457;48.770;11.446;2023-03-07T05:35:19;2.30;69.10
20598;DHT22;10457;48.770;11.446;2023-03-07T05:40:45;2.30;69.50
20598;DHT22;10457;48.770;11.446;2023-03-07T05:46:07;2.30;69.80
20598;DHT22;10457;48.770;11.446;2023-03-07T05:51:28;2.20;69.90
20598;DHT22;10457;48.770;11.446;2023-03-07T05:56:51;2.20;70.10
20598;DHT22;10457;48.770;11.446;2023-03-07T06:02:13;2.20;70.40
20598;DHT22;10457;48.770;11.446;2023-03-07T06:07:35;2.20;70.90
20598;DHT22;10457;48.770;11.446;2023-03-07T06:12:58;2.30;70.10
20598;DHT22;10457;48.770;11.446;2023-03-07T06:18:21;2.30;69.80
20598;DHT22;10457;48.770;11.446;2023-03-07T06:23:43;2.40;69.50
20598;DHT22;10457;48.770;11.446;2023-03-07T06:29:11;2.50;69.60
20598;DHT22;10457;48.770;11.446;2023-03-07T06:34:33;2.60;69.40
20598;DHT22;10457;48.770;11.446;2023-03-07T06:39:55;2.60;69.50
20598;DHT22;10457;48.770;11.446;2023-03-07T06:45:17;2.60;68.70
20598;DHT22;10457;48.770;11.446;2023-03-07T06:50:39;2.70;69.90
20598;DHT22;10457;48.770;11.446;2023-03-07T06:56:01;2.80;68.60
20598;DHT22;10457;48.770;11.446;2023-03-07T07:01:25;2.90;67.60
20598;DHT22;10457;48.770;11.446;2023-03-07T07:06:49;2.90;67.60
20598;DHT22;10457;48.770;11.446;2023-03-07T07:12:11;2.80;67.20
20598;DHT22;10457;48.770;11.446;2023-03-07T07:17:33;2.90;67.40
20598;DHT22;10457;48.770;11.446;2023-03-07T07:22:55;2.90;66.80
20598;DHT22;10457;48.770;11.446;2023-03-07T07:28:17;2.90;66.80
20598;DHT22;10457;48.770;11.446;2023-03-07T07:33:40;3.00;66.10
20598;DHT22;10457;48.770;11.446;2023-03-07T07:39:02;3.10;65.50
20598;DHT22;10457;48.770;11.446;2023-03-07T07:44:28;3.20;65.10
20598;DHT22;10457;48.770;11.446;2023-03-07T07:49:53;3.20;64.50
20598;DHT22;10457;48.770;11.446;2023-03-07T07:55:15;3.30;64.70
20598;DHT22;10457;48.770;11.446;2023-03-07T08:00:37;3.40;64.00
20598;DHT22;10457;48.770;11.446;2023-03-07T08:06:00;3.50;63.60
20598;DHT22;10457;48.770;11.446;2023-03-07T08:11:22;3.70;62.60
20598;DHT22;10457;48.770;11.446;2023-03-07T08:16:43;3.90;62.80
20598;DHT22;10457;48.770;11.446;2023-03-07T08:22:06;3.90;61.80
20598;DHT22;10457;48.770;11.446;2023-03-07T08:27:28;4.10;61.20
20598;DHT22;10457;48.770;11.446;2023-03-07T08:32:50;4.20;61.40
20598;DHT22;10457;48.770;11.446;2023-03-07T08:38:13;4.20;61.20
20598;DHT22;10457;48.770;11.446;2023-03-07T08:43:35;4.20;60.20
20598;DHT22;10457;48.770;11.446;2023-03-07T08:48:57;4.60;60.90
20598;DHT22;10457;48.770;11.446;2023-03-07T08:54:20;4.90;58.10
20598;DHT22;10457;48.770;11.446;2023-03-07T08:59:42;5.10;56.90
20598;DHT22;10457;48.770;11.446;2023-03-07T09:05:04;5.00;57.00
20598;DHT22;10457;48.770;11.446;2023-03-07T09:10:27;4.90;57.70
20598;DHT22;10457;48.770;11.446;2023-03-07T09:15:48;5.70;56.30
20598;DHT22;10457;48.770;11.446;2023-03-07T09:21:09;6.40;55.70
20598;DHT22;10457;48.770;11.446;2023-03-07T09:26:32;7.10;52.60
20598;DHT22;10457;48.770;11.446;2023-03-07T09:31:54;7.10;52.10
20598;DHT22;10457;48.770;11.446;2023-03-07T09:37:15;6.50;53.20
20598;DHT22;10457;48.770;11.446;2023-03-07T09:42:46;6.60;53.20
20598;DHT22;10457;48.770;11.446;2023-03-07T09:48:43;6.50;53.30
20598;DHT22;10457;48.770;11.446;2023-03-07T09:54:16;7.40;52.40
20598;DHT22;10457;48.770;11.446;2023-03-07T09:59:43;8.70;49.60
20598;DHT22;10457;48.770;11.446;2023-03-07T10:05:12;10.10;45.20
20598;DHT22;10457;48.770;11.446;2023-03-07T10:10:52;12.10;41.30
20598;DHT22;10457;48.770;11.446;2023-03-07T10:16:26;13.80;37.70
20598;DHT22;10457;48.770;11.446;2023-03-07T10:21:57;14.40;37.80
20598;DHT22;10457;48.770;11.446;2023-03-07T10:27:25;16.00;34.90
20598;DHT22;10457;48.770;11.446;2023-03-07T10:32:52;16.00;33.20
20598;DHT22;10457;48.770;11.446;2023-03-07T10:38:23;15.10;34.00
20598;DHT22;10457;48.770;11.446;2023-03-07T10:43:49;14.10;34.30
20598;DHT22;10457;48.770;11.446;2023-03-07T10:49:17;13.20;35.40
20598;DHT22;10457;48.770;11.446;2023-03-07T10:54:40;12.00;39.30
20598;DHT22;10457;48.770;11.446;2023-03-07T11:00:13;11.50;39.70
20598;DHT22;10457;48.770;11.446;2023-03-07T11:05:46;11.60;40.10
20598;DHT22;10457;48.770;11.446;2023-03-07T11:11:21;13.30;37.00
20598;DHT22;10457;48.770;11.446;2023-03-07T11:16:49;15.30;34.20
20598;DHT22;10457;48.770;11.446;2023-03-07T11:22:22;13.90;34.10
20598;DHT22;10457;48.770;11.446;2023-03-07T11:27:49;11.70;38.40
20598;DHT22;10457;48.770;11.446;2023-03-07T11:33:16;10.30;40.00
20598;DHT22;10457;48.770;11.446;2023-03-07T11:38:50;9.00;43.30
20598;DHT22;10457;48.770;11.446;2023-03-07T11:44:24;9.00;44.50
20598;DHT22;10457;48.770;11.446;2023-03-07T11:50:03;10.00;42.50
20598;DHT22;10457;48.770;11.446;2023-03-07T11:55:37;10.00;42.50
20598;DHT22;10457;48.770;11.446;2023-03-07T12:01:09;10.10;42.20
20598;DHT22;10457;48.770;11.446;2023-03-07T12:06:44;11.10;39.50
20598;DHT22;10457;48.770;11.446;2023-03-07T12:12:28;10.40;39.50
20598;DHT22;10457;48.770;11.446;2023-03-07T12:18:17;12.30;36.20
20598;DHT22;10457;48.770;11.446;2023-03-07T12:23:50;11.00;37.50
20598;DHT22;10457;48.770;11.446;2023-03-07T12:29:19;9.80;39.80
20598;DHT22;10457;48.770;11.446;2023-03-07T12:34:56;8.80;41.50
20598;DHT22;10457;48.770;11.446;2023-03-07T12:40:22;8.00;42.30
20598;DHT22;10457;48.770;11.446;2023-03-07T12:45:51;7.90;43.30
20598;DHT22;10457;48.770;11.446;2023-03-07T12:51:20;8.00;43.60
20598;DHT22;10457;48.770;11.446;2023-03-07T12:56:49;8.40;43.00
20598;DHT22;10457;48.770;11.446;2023-03-07T13:02:19;9.10;42.20
20598;DHT22;10457;48.770;11.446;2023-03-07T13:07:45;11.20;38.60
20598;DHT22;10457;48.770;11.446;2023-03-07T13:25:54;13.50;32.30
20598;DHT22;10457;48.770;11.446;2023-03-07T13:31:39;13.10;32.70
20598;DHT22;10457;48.770;11.446;2023-03-07T13:49:45;15.80;28.70
20598;DHT22;10457;48.770;11.446;2023-03-07T13:55:24;15.80;27.40
20598;DHT22;10457;48.770;11.446;2023-03-07T14:00:54;12.60;32.70
20598;DHT22;10457;48.770;11.446;2023-03-07T14:06:20;11.50;34.70
20598;DHT22;10457;48.770;11.446;2023-03-07T14:11:50;10.80;34.70
20598;DHT22;10457;48.770;11.446;2023-03-07T14:17:25;10.60;36.30
20598;DHT22;10457;48.770;11.446;2023-03-07T14:23:04;11.30;35.00
20598;DHT22;10457;48.770;11.446;2023-03-07T14:28:32;10.60;35.70
20598;DHT22;10457;48.770;11.446;2023-03-07T14:33:53;10.10;35.70
20598;DHT22;10457;48.770;11.446;2023-03-07T14:39:16;9.90;36.90
20598;DHT22;10457;48.770;11.446;2023-03-07T14:50:31;10.30;37.80
20598;DHT22;10457;48.770;11.446;2023-03-07T14:55:54;10.20;37.50
20598;DHT22;10457;48.770;11.446;2023-03-07T15:01:18;10.00;37.40
20598;DHT22;10457;48.770;11.446;2023-03-07T15:06:42;9.40;38.20
20598;DHT22;10457;48.770;11.446;2023-03-07T15:12:06;9.00;39.20
20598;DHT22;10457;48.770;11.446;2023-03-07T15:17:37;8.50;40.10
20598;DHT22;10457;48.770;11.446;2023-03-07T15:23:04;8.40;39.90
20598;DHT22;10457;48.770;11.446;2023-03-07T15:28:30;8.20;40.90
20598;DHT22;10457;48.770;11.446;2023-03-07T15:34:08;8.10;42.50
20598;DHT22;10457;48.770;11.446;2023-03-07T15:39:32;8.10;42.10
20598;DHT22;10457;48.770;11.446;2023-03-07T15:44:55;8.20;40.30
20598;DHT22;10457;48.770;11.446;2023-03-07T15:50:22;7.90;41.20
20598;DHT22;10457;48.770;11.446;2023-03-07T15:55:53;7.80;41.80
20598;DHT22;10457;48.770;11.446;2023-03-07T16:01:20;7.70;42.10
20598;DHT22;10457;48.770;11.446;2023-03-07T16:06:44;7.30;42.30
20598;DHT22;10457;48.770;11.446;2023-03-07T16:12:10;7.00;43.40
20598;DHT22;10457;48.770;11.446;2023-03-07T16:17:36;6.70;43.90
20598;DHT22;10457;48.770;11.446;2023-03-07T16:22:59;6.60;44.10
20598;DHT22;10457;48.770;11.446;2023-03-07T16:28:21;6.40;44.80
20598;DHT22;10457;48.770;11.446;2023-03-07T16:33:43;6.30;45.30
20598;DHT22;10457;48.770;11.446;2023-03-07T16:39:06;6.20;45.70
20598;DHT22;10457;48.770;11.446;2023-03-07T16:44:27;6.20;45.80
20598;DHT22;10457;48.770;11.446;2023-03-07T16:49:48;6.00;44.60
20598;DHT22;10457;48.770;11.446;2023-03-07T16:55:15;5.90;44.90
20598;DHT22;10457;48.770;11.446;2023-03-07T17:00:38;5.70;44.30
20598;DHT22;10457;48.770;11.446;2023-03-07T17:05:59;5.40;45.20
20598;DHT22;10457;48.770;11.446;2023-03-07T17:11:23;5.30;46.30
20598;DHT22;10457;48.770;11.446;2023-03-07T17:16:48;5.10;47.00
20598;DHT22;10457;48.770;11.446;2023-03-07T17:22:10;5.00;47.40
20598;DHT22;10457;48.770;11.446;2023-03-07T17:27:35;5.00;47.00
20598;DHT22;10457;48.770;11.446;2023-03-07T17:32:58;4.90;47.40
20598;DHT22;10457;48.770;11.446;2023-03-07T17:38:19;4.80;47.20
20598;DHT22;10457;48.770;11.446;2023-03-07T17:43:42;4.60;47.50
20598;DHT22;10457;48.770;11.446;2023-03-07T17:49:04;4.50;47.50
20598;DHT22;10457;48.770;11.446;2023-03-07T17:54:25;4.40;47.90
20598;DHT22;10457;48.770;11.446;2023-03-07T17:59:48;4.40;48.20
20598;DHT22;10457;48.770;11.446;2023-03-07T18:05:10;4.30;48.70
20598;DHT22;10457;48.770;11.446;2023-03-07T18:10:32;4.20;48.70
20598;DHT22;10457;48.770;11.446;2023-03-07T18:15:57;4.10;48.90
20598;DHT22;10457;48.770;11.446;2023-03-07T18:21:20;4.10;49.40
20598;DHT22;10457;48.770;11.446;2023-03-07T18:26:42;3.90;49.90
20598;DHT22;10457;48.770;11.446;2023-03-07T18:32:05;4.10;49.50
20598;DHT22;10457;48.770;11.446;2023-03-07T18:37:27;4.00;49.70
20598;DHT22;10457;48.770;11.446;2023-03-07T18:42:49;3.90;50.20
20598;DHT22;10457;48.770;11.446;2023-03-07T18:48:12;3.80;51.00
20598;DHT22;10457;48.770;11.446;2023-03-07T18:53:34;3.60;50.70
20598;DHT22;10457;48.770;11.446;2023-03-07T18:58:57;3.80;50.60
20598;DHT22;10457;48.770;11.446;2023-03-07T19:04:20;3.70;50.50
20598;DHT22;10457;48.770;11.446;2023-03-07T19:09:42;3.60;50.70
20598;DHT22;10457;48.770;11.446;2023-03-07T19:15:05;3.60;51.00
20598;DHT22;10457;48.770;11.446;2023-03-07T19:20:28;3.50;51.30
20598;DHT22;10457;48.770;11.446;2023-03-07T19:25:50;3.40;51.70
20598;DHT22;10457;48.770;11.446;2023-03-07T19:31:14;3.30;51.70
20598;DHT22;10457;48.770;11.446;2023-03-07T19:36:39;3.40;51.70
20598;DHT22;10457;48.770;11.446;2023-03-07T19:42:01;3.40;51.50
20598;DHT22;10457;48.770;11.446;2023-03-07T19:47:23;3.50;51.40
20598;DHT22;10457;48.770;11.446;2023-03-07T19:52:46;3.50;51.90
20598;DHT22;10457;48.770;11.446;2023-03-07T19:58:07;3.30;52.50
20598;DHT22;10457;48.770;11.446;2023-03-07T20:03:28;3.30;52.70
20598;DHT22;10457;48.770;11.446;2023-03-07T20:08:53;3.40;52.90
20598;DHT22;10457;48.770;11.446;2023-03-07T20:14:15;3.50;51.80
20598;DHT22;10457;48.770;11.446;2023-03-07T20:19:36;3.30;52.90
20598;DHT22;10457;48.770;11.446;2023-03-07T20:24:59;3.30;53.30
20598;DHT22;10457;48.770;11.446;2023-03-07T20:30:21;3.10;53.70
20598;DHT22;10457;48.770;11.446;2023-03-07T20:35:43;3.30;54.10
20598;DHT22;10457;48.770;11.446;2023-03-07T20:41:07;3.20;54.20
20598;DHT22;10457;48.770;11.446;2023-03-07T20:46:32;3.30;54.00
20598;DHT22;10457;48.770;11.446;2023-03-07T20:51:54;3.30;54.00
20598;DHT22;10457;48.770;11.446;2023-03-07T20:57:17;3.30;54.20
20598;DHT22;10457;48.770;11.446;2023-03-07T21:02:38;3.30;54.00
20598;DHT22;10457;48.770;11.446;2023-03-07T21:08:00;3.10;54.50
20598;DHT22;10457;48.770;11.446;2023-03-07T21:13:23;2.90;55.30
20598;DHT22;10457;48.770;11.446;2023-03-07T21:18:44;3.00;55.70
20598;DHT22;10457;48.770;11.446;2023-03-07T21:24:06;2.90;56.10
20598;DHT22;10457;48.770;11.446;2023-03-07T21:29:30;3.10;56.00
20598;DHT22;10457;48.770;11.446;2023-03-07T21:34:51;3.20;56.00
20598;DHT22;10457;48.770;11.446;2023-03-07T21:40:13;3.20;56.00
20598;DHT22;10457;48.770;11.446;2023-03-07T21:45:36;3.20;56.00
20598;DHT22;10457;48.770;11.446;2023-03-07T21:50:58;3.30;55.80
20598;DHT22;10457;48.770;11.446;2023-03-07T21:56:19;3.30;56.00
20598;DHT22;10457;48.770;11.446;2023-03-07T22:01:43;3.30;56.30
20598;DHT22;10457;48.770;11.446;2023-03-07T22:07:05;3.30;56.40
20598;DHT22;10457;48.770;11.446;2023-03-07T22:12:26;3.40;55.90
20598;DHT22;10457;48.770;11.446;2023-03-07T22:17:49;3.40;55.90
20598;DHT22;10457;48.770;11.446;2023-03-07T22:23:10;3.50;56.00
20598;DHT22;10457;48.770;11.446;2023-03-07T22:28:33;3.40;56.10
20598;DHT22;10457;48.770;11.446;2023-03-07T22:33:56;3.50;56.50
20598;DHT22;10457;48.770;11.446;2023-03-07T22:39:19;3.50;56.30
20598;DHT22;10457;48.770;11.446;2023-03-07T22:44:40;3.50;56.20
20598;DHT22;10457;48.770;11.446;2023-03-07T22:50:03;3.50;56.20
20598;DHT22;10457;48.770;11.446;2023-03-07T22:55:29;3.50;55.90
20598;DHT22;10457;48.770;11.446;2023-03-07T23:00:50;3.40;55.50
20598;DHT22;10457;48.770;11.446;2023-03-07T23:06:13;3.60;55.00
20598;DHT22;10457;48.770;11.446;2023-03-07T23:11:35;3.60;54.80
20598;DHT22;10457;48.770;11.446;2023-03-07T23:16:56;3.60;54.70
20598;DHT22;10457;48.770;11.446;2023-03-07T23:22:19;3.50;54.80
20598;DHT22;10457;48.770;11.446;2023-03-07T23:27:41;3.50;54.80
20598;DHT22;10457;48.770;11.446;2023-03-07T23:33:02;3.50;54.80
20598;DHT22;10457;48.770;11.446;2023-03-07T23:38:25;3.50;54.80
20598;DHT22;10457;48.770;11.446;2023-03-07T23:43:49;3.50;55.00
20598;DHT22;10457;48.770;11.446;2023-03-07T23:49:11;3.50;54.80
20598;DHT22;10457;48.770;11.446;2023-03-07T23:54:34;3.50;54.80
20598;DHT22;10457;48.770;11.446;2023-03-07T23:59:55;3.50;54.80
